Time;durP1;ratioP1;P1;durP2;ratioP2;P2;SDS_P1;SDS_P2;PMS_P1;PMS_P2;Temp;Humidity;BMP_temperature;BMP_pressure;BME280_temperature;BME280_humidity;BME280_pressure;Samples;Min_cycle;Max_cycle;Signal;HPM_P1;HPM_P2
2023/05/12 00:01:46;;;;;;;6.10;5.87;;;14.80;57.00;;;;;;20529;6840;277707;-76
2023/05/12 00:04:11;;;;;;;6.30;6.00;;;15.10;56.20;;;;;;20525;6840;303608;-76
2023/05/12 00:06:37;;;;;;;7.73;7.23;;;15.30;55.60;;;;;;20522;6840;277783;-76
2023/05/12 00:09:05;;;;;;;6.57;6.28;;;15.50;55.00;;;;;;20505;6840;337425;-76
2023/05/12 00:11:29;;;;;;;7.60;7.20;;;15.60;54.90;;;;;;20509;6838;298310;-76
2023/05/12 00:13:55;;;;;;;7.62;7.22;;;15.70;54.50;;;;;;20531;6840;278013;-76
2023/05/12 00:16:21;;;;;;;7.63;7.23;;;15.70;54.30;;;;;;20527;6840;307170;-75
2023/05/12 00:18:46;;;;;;;7.22;6.93;;;15.70;54.20;;;;;;20501;6840;342705;-76
2023/05/12 00:21:13;;;;;;;7.70;7.30;;;15.80;54.10;;;;;;20519;6840;307560;-76
2023/05/12 00:23:38;;;;;;;6.00;5.70;;;15.80;54.10;;;;;;20735;6840;121553;-76
2023/05/12 00:26:05;;;;;;;6.53;6.03;;;15.50;54.70;;;;;;20735;6840;118554;-76
2023/05/12 00:28:31;;;;;;;6.27;5.97;;;15.10;55.60;;;;;;20732;6840;118968;-75
2023/05/12 00:30:59;;;;;;;5.93;5.63;;;14.70;56.30;;;;;;20712;6840;144058;-76
2023/05/12 00:33:24;;;;;;;6.77;5.93;;;14.50;56.90;;;;;;20734;6840;117620;-76
2023/05/12 00:35:51;;;;;;;6.47;5.90;;;14.30;57.50;;;;;;20731;6840;118215;-75
2023/05/12 00:38:17;;;;;;;6.90;6.55;;;14.40;58.10;;;;;;20507;6840;341943;-76
2023/05/12 00:40:44;;;;;;;5.83;5.53;;;14.30;58.00;;;;;;20704;6840;123910;-76
2023/05/12 00:43:10;;;;;;;5.63;5.33;;;14.40;57.70;;;;;;20738;6840;117517;-76
2023/05/12 00:45:35;;;;;;;7.57;6.97;;;14.30;58.10;;;;;;20519;6840;336188;-76
2023/05/12 00:48:01;;;;;;;6.03;5.73;;;14.40;57.70;;;;;;20701;6840;118978;-76
2023/05/12 00:50:26;;;;;;;6.17;5.83;;;14.40;57.70;;;;;;20726;6840;117118;-75
2023/05/12 00:52:52;;;;;;;7.35;6.95;;;14.30;58.30;;;;;;20508;6840;346140;-75
2023/05/12 00:55:19;;;;;;;6.27;5.87;;;14.50;58.20;;;;;;20744;6840;119889;-76
2023/05/12 00:57:45;;;;;;;5.97;5.67;;;14.50;57.90;;;;;;20743;6840;117321;-75
2023/05/12 01:00:10;;;;;;;6.30;5.63;;;14.30;58.10;;;;;;20731;6840;118316;-76
2023/05/12 01:02:37;;;;;;;5.47;5.10;;;13.90;58.60;;;;;;20715;6840;117223;-75
2023/05/12 01:05:04;;;;;;;5.80;5.33;;;13.90;58.60;;;;;;20710;6840;118791;-76
2023/05/12 01:07:29;;;;;;;6.30;5.90;;;13.90;59.00;;;;;;20520;6840;307981;-75
2023/05/12 01:09:56;;;;;;;6.93;6.40;;;14.50;58.50;;;;;;20516;6840;286394;-75
2023/05/12 01:12:21;;;;;;;6.63;6.33;;;14.40;58.40;;;;;;20724;6840;118360;-76
2023/05/12 01:14:47;;;;;;;7.00;6.50;;;14.30;58.70;;;;;;20715;6840;117696;-75
2023/05/12 01:17:14;;;;;;;6.37;5.97;;;14.30;58.70;;;;;;20722;6840;118821;-76
2023/05/12 01:19:48;;;;;;;7.40;6.90;;;14.30;58.70;;;;;;20498;6840;282481;-79
2023/05/12 01:22:13;;;;;;;7.20;6.60;;;14.30;58.60;;;;;;20523;6838;290586;-75
2023/05/12 01:24:56;;;;;;;5.95;5.45;;;14.70;57.90;;;;;;20749;6839;123167;-76
2023/05/12 01:27:21;;;;;;;5.23;4.90;;;14.60;57.80;;;;;;20738;6840;117911;-76
2023/05/12 01:29:47;;;;;;;6.57;6.18;;;14.40;58.30;;;;;;20514;6840;307812;-76
2023/05/12 01:32:14;;;;;;;7.00;6.57;;;14.80;57.50;;;;;;20511;6840;337153;-79
2023/05/12 01:34:41;;;;;;;6.00;5.70;;;14.70;57.50;;;;;;20732;6840;119896;-77
2023/05/12 01:37:06;;;;;;;5.43;5.13;;;14.70;57.50;;;;;;20730;6840;117288;-75
2023/05/12 01:39:31;;;;;;;5.95;5.65;;;14.40;58.10;;;;;;20521;6840;312049;-81
2023/05/12 01:41:57;;;;;;;5.80;5.50;;;14.50;58.00;;;;;;20735;6840;118288;-77
2023/05/12 01:44:23;;;;;;;5.60;5.30;;;14.50;58.20;;;;;;20736;6840;117143;-76
2023/05/12 01:46:50;;;;;;;8.18;7.57;;;14.50;58.20;;;;;;20509;6840;307893;-81
2023/05/12 01:49:16;;;;;;;7.63;7.13;;;14.50;58.20;;;;;;20739;6840;117230;-78
2023/05/12 01:51:42;;;;;;;7.72;7.32;;;14.50;58.20;;;;;;20526;6840;277992;-79
2023/05/12 01:54:07;;;;;;;7.10;6.60;;;14.60;57.80;;;;;;20734;6840;118302;-75
2023/05/12 01:56:33;;;;;;;7.78;7.37;;;14.60;57.80;;;;;;20524;6840;308860;-80
2023/05/12 01:58:58;;;;;;;6.50;6.20;;;14.70;57.30;;;;;;20717;6840;118204;-78
2023/05/12 02:01:27;;;;;;;6.27;5.87;;;14.70;57.50;;;;;;20732;6840;117745;-75
2023/05/12 02:03:50;;;;;;;6.40;6.00;;;14.40;57.90;;;;;;20718;6840;118631;-76
2023/05/12 02:06:15;;;;;;;7.70;7.30;;;14.20;58.40;;;;;;20520;6840;337895;-75
2023/05/12 02:08:40;;;;;;;6.20;5.70;;;14.40;58.20;;;;;;20726;6840;117089;-76
2023/05/12 02:11:06;;;;;;;7.45;7.03;;;14.30;58.10;;;;;;20533;6840;337226;-76
2023/05/12 02:13:32;;;;;;;7.00;6.60;;;14.50;57.80;;;;;;20734;6840;117215;-76
2023/05/12 02:15:57;;;;;;;7.07;6.70;;;14.40;57.80;;;;;;20525;6840;311354;-75
2023/05/12 02:18:23;;;;;;;7.40;7.00;;;14.60;57.70;;;;;;20738;6840;117624;-76
2023/05/12 02:20:48;;;;;;;7.57;6.93;;;14.50;57.70;;;;;;20725;6840;117823;-75
2023/05/12 02:23:14;;;;;;;7.57;7.00;;;14.30;58.10;;;;;;20678;6840;121147;-76
2023/05/12 02:25:39;;;;;;;9.25;8.65;;;14.10;58.60;;;;;;20491;6840;338302;-76
2023/05/12 02:28:09;;;;;;;7.87;7.47;;;14.20;58.30;;;;;;20728;6840;118242;-75
2023/05/12 02:30:31;;;;;;;7.13;6.73;;;14.20;58.30;;;;;;20707;6840;119646;-76
2023/05/12 02:32:57;;;;;;;7.28;6.87;;;14.10;58.90;;;;;;20720;6840;120770;-75
2023/05/12 02:35:26;;;;;;;7.75;7.25;;;14.00;59.40;;;;;;20740;6839;117194;-76
2023/05/12 02:37:51;;;;;;;9.00;8.37;;;13.90;59.70;;;;;;20530;6840;278042;-76
2023/05/12 02:40:17;;;;;;;7.53;6.90;;;14.20;59.10;;;;;;20739;6840;119367;-76
2023/05/12 02:42:44;;;;;;;6.73;6.13;;;14.20;59.10;;;;;;20715;6840;117672;-76
2023/05/12 02:45:09;;;;;;;6.27;5.97;;;14.10;59.30;;;;;;20724;6840;121766;-76
2023/05/12 02:47:35;;;;;;;7.20;6.80;;;13.90;59.50;;;;;;20522;6840;278057;-75
2023/05/12 02:50:00;;;;;;;7.12;6.72;;;14.10;59.10;;;;;;20519;6840;307931;-75
2023/05/12 02:52:25;;;;;;;5.97;5.57;;;14.50;58.40;;;;;;20727;6840;118203;-76
2023/05/12 02:54:52;;;;;;;6.60;5.97;;;14.20;58.80;;;;;;20713;6840;123074;-76
2023/05/12 02:57:19;;;;;;;5.57;5.17;;;14.20;58.80;;;;;;20734;6840;118938;-75
2023/05/12 02:59:45;;;;;;;4.77;4.47;;;13.90;59.70;;;;;;20732;6840;116968;-76
2023/05/12 03:02:11;;;;;;;4.97;4.77;;;13.90;59.70;;;;;;20723;6840;117117;-75
2023/05/12 03:04:37;;;;;;;5.43;5.12;;;14.00;59.60;;;;;;20520;6840;308422;-76
2023/05/12 03:07:03;;;;;;;5.23;4.93;;;14.00;59.60;;;;;;20721;6840;117593;-76
2023/05/12 03:09:29;;;;;;;4.70;4.40;;;14.10;59.30;;;;;;20744;6840;118201;-76
2023/05/12 03:11:55;;;;;;;4.57;4.33;;;14.00;59.50;;;;;;20737;6840;122496;-76
2023/05/12 03:14:20;;;;;;;5.57;5.20;;;13.80;59.70;;;;;;20523;6840;308201;-75
2023/05/12 03:16:46;;;;;;;4.87;4.43;;;14.00;59.40;;;;;;20708;6840;117756;-76
2023/05/12 03:19:11;;;;;;;4.80;4.50;;;14.10;59.30;;;;;;20506;6840;337451;-76
2023/05/12 03:21:37;;;;;;;5.60;5.17;;;14.30;59.20;;;;;;20517;6840;308420;-76
2023/05/12 03:24:03;;;;;;;5.40;5.00;;;14.80;58.10;;;;;;20520;6840;333558;-76
2023/05/12 03:26:29;;;;;;;4.90;4.50;;;14.80;57.60;;;;;;20725;6840;117936;-77
2023/05/12 03:28:55;;;;;;;5.13;4.77;;;14.40;58.20;;;;;;20716;6840;118393;-75
2023/05/12 03:31:22;;;;;;;5.68;5.28;;;14.40;58.20;;;;;;20522;6840;307078;-76
2023/05/12 03:33:48;;;;;;;5.20;4.80;;;14.50;58.00;;;;;;20530;6840;307551;-76
2023/05/12 03:36:13;;;;;;;5.37;5.17;;;14.70;57.60;;;;;;20518;6840;318147;-78
2023/05/12 03:38:40;;;;;;;4.90;4.65;;;15.00;57.10;;;;;;20744;6840;119978;-79
2023/05/12 03:41:06;;;;;;;5.37;5.07;;;14.80;57.10;;;;;;20734;6840;117235;-78
2023/05/12 03:43:31;;;;;;;5.10;4.80;;;14.50;57.80;;;;;;20729;6840;117122;-81
2023/05/12 03:45:57;;;;;;;6.30;5.72;;;14.30;58.50;;;;;;20732;6839;118382;-77
2023/05/12 03:48:24;;;;;;;7.00;6.60;;;14.10;59.10;;;;;;20520;6840;308785;-77
2023/05/12 03:50:50;;;;;;;7.03;6.60;;;14.20;58.70;;;;;;20505;6840;292042;-78
2023/05/12 03:53:16;;;;;;;6.33;6.03;;;14.60;58.00;;;;;;20727;6840;117902;-78
2023/05/12 03:55:42;;;;;;;7.57;7.07;;;14.60;57.70;;;;;;20525;6840;307073;-77
2023/05/12 03:58:09;;;;;;;7.20;6.60;;;14.60;57.70;;;;;;20736;6840;119037;-77
2023/05/12 04:00:35;;;;;;;6.67;6.17;;;14.50;57.80;;;;;;20731;6840;117083;-77
2023/05/12 04:03:00;;;;;;;7.90;7.30;;;14.30;58.40;;;;;;20504;6840;285998;-77
2023/05/12 04:05:26;;;;;;;7.70;7.20;;;14.40;58.40;;;;;;20511;6840;336486;-77
2023/05/12 04:07:51;;;;;;;7.65;7.15;;;14.70;57.90;;;;;;20527;6840;282256;-77
2023/05/12 04:10:20;;;;;;;6.60;6.20;;;14.90;57.10;;;;;;20731;6840;121367;-80
2023/05/12 04:12:46;;;;;;;6.73;6.23;;;14.80;57.00;;;;;;20500;6840;307993;-74
2023/05/12 04:15:15;;;;;;;7.53;7.05;;;15.00;56.80;;;;;;20463;6840;337026;-75
2023/05/12 04:17:41;;;;;;;8.33;7.63;;;15.20;56.40;;;;;;20502;6840;297494;-74
2023/05/12 04:20:07;;;;;;;8.33;7.83;;;15.20;56.40;;;;;;20473;6840;308830;-73
2023/05/12 04:22:36;;;;;;;7.67;7.17;;;15.40;56.20;;;;;;20712;6840;121621;-78
2023/05/12 04:25:01;;;;;;;8.48;7.90;;;15.10;56.50;;;;;;20486;6840;307658;-78
2023/05/12 04:27:27;;;;;;;7.50;7.00;;;15.10;56.80;;;;;;20731;6840;118885;-76
2023/05/12 04:29:52;;;;;;;9.60;9.00;;;14.90;57.10;;;;;;20522;6840;345098;-74
2023/05/12 04:32:18;;;;;;;7.83;7.23;;;15.00;57.50;;;;;;20743;6840;117175;-76
2023/05/12 04:34:44;;;;;;;6.87;6.37;;;14.90;57.10;;;;;;20718;6840;118365;-77
2023/05/12 04:37:10;;;;;;;6.95;6.35;;;14.40;58.30;;;;;;20733;6840;117746;-76
2023/05/12 04:39:35;;;;;;;6.20;5.80;;;14.40;58.30;;;;;;20752;6840;68429;-77
2023/05/12 04:42:01;;;;;;;6.70;6.07;;;14.20;58.80;;;;;;20731;6840;117244;-78
2023/05/12 04:44:27;;;;;;;6.18;5.62;;;14.10;59.30;;;;;;20732;6840;117379;-79
2023/05/12 04:46:55;;;;;;;6.63;6.13;;;14.00;59.60;;;;;;20712;6840;118560;-78
2023/05/12 04:49:18;;;;;;;7.27;6.33;;;14.00;59.90;;;;;;20721;6840;123645;-78
2023/05/12 04:51:44;;;;;;;6.90;6.33;;;13.90;60.20;;;;;;20731;6840;119142;-77
2023/05/12 04:54:10;;;;;;;6.70;6.03;;;13.80;60.20;;;;;;20728;6840;117715;-75
2023/05/12 04:56:36;;;;;;;7.90;7.37;;;13.80;60.80;;;;;;20536;6840;279301;-77
2023/05/12 04:59:01;;;;;;;8.23;7.50;;;14.10;60.80;;;;;;20742;6838;118000;-79
2023/05/12 05:01:28;;;;;;;8.45;7.85;;;14.20;59.80;;;;;;20532;6840;338921;-79
2023/05/12 05:03:53;;;;;;;9.40;8.53;;;14.40;59.30;;;;;;20747;6840;117518;-73
2023/05/12 05:06:20;;;;;;;8.13;7.47;;;14.40;59.10;;;;;;20734;6840;117296;-80
2023/05/12 05:08:46;;;;;;;9.57;8.67;;;14.30;59.50;;;;;;20511;6840;307967;-79
2023/05/12 05:11:12;;;;;;;7.87;7.37;;;14.50;58.90;;;;;;20727;6840;117721;-77
2023/05/12 05:13:38;;;;;;;9.88;8.98;;;14.70;58.70;;;;;;20488;6840;337117;-78
2023/05/12 05:16:05;;;;;;;10.37;9.47;;;14.70;58.70;;;;;;20518;6840;307600;-78
2023/05/12 05:18:31;;;;;;;9.00;8.27;;;15.00;57.90;;;;;;20715;6840;116188;-79
2023/05/12 05:20:56;;;;;;;12.13;11.20;;;15.00;58.10;;;;;;20509;6840;282915;-78
2023/05/12 05:23:22;;;;;;;12.90;11.87;;;15.10;57.70;;;;;;20480;6855;280000;-77
2023/05/12 05:25:48;;;;;;;14.40;13.20;;;15.30;57.10;;;;;;20473;6853;309432;-79
2023/05/12 05:28:14;;;;;;;11.80;10.87;;;15.50;56.80;;;;;;20694;6855;118020;-77
2023/05/12 05:30:40;;;;;;;12.60;11.57;;;15.40;57.00;;;;;;20533;6840;336775;-78
2023/05/12 05:33:07;;;;;;;11.47;10.57;;;15.20;57.20;;;;;;20601;6840;117166;-77
2023/05/12 05:35:33;;;;;;;13.93;12.83;;;15.20;57.20;;;;;;20519;6840;307693;-77
2023/05/12 05:37:59;;;;;;;15.18;14.07;;;15.30;57.10;;;;;;20485;6840;337537;-77
2023/05/12 05:40:25;;;;;;;15.15;13.98;;;15.50;56.70;;;;;;20519;6840;337657;-76
2023/05/12 05:42:51;;;;;;;12.67;11.60;;;15.60;56.60;;;;;;20711;6840;149280;-78
2023/05/12 05:45:17;;;;;;;13.88;12.88;;;15.50;56.40;;;;;;20513;6840;335176;-77
2023/05/12 05:47:43;;;;;;;12.70;11.70;;;15.50;56.90;;;;;;20731;6840;122464;-78
2023/05/12 05:50:09;;;;;;;12.17;11.07;;;15.40;56.70;;;;;;20717;6840;117389;-76
2023/05/12 05:52:34;;;;;;;15.00;13.80;;;15.20;57.50;;;;;;20505;6840;283602;-76
2023/05/12 05:55:00;;;;;;;12.30;11.17;;;15.30;56.90;;;;;;20697;6840;118120;-76
2023/05/12 05:57:27;;;;;;;12.88;11.88;;;15.30;57.20;;;;;;20510;6840;337218;-76
2023/05/12 05:59:53;;;;;;;11.70;10.57;;;15.40;57.00;;;;;;20726;6840;117437;-75
2023/05/12 06:02:22;;;;;;;14.40;13.20;;;15.40;57.30;;;;;;20522;6840;308516;-77
2023/05/12 06:04:46;;;;;;;13.95;12.95;;;15.80;56.40;;;;;;20494;6840;278305;-80
2023/05/12 06:07:12;;;;;;;13.40;12.30;;;15.70;56.20;;;;;;20509;6840;303694;-77
2023/05/12 06:09:37;;;;;;;11.45;10.55;;;16.00;56.00;;;;;;20736;6838;117396;-77
2023/05/12 06:12:02;;;;;;;11.90;11.00;;;15.90;56.20;;;;;;20730;6840;118333;-77
2023/05/12 06:14:28;;;;;;;11.80;11.00;;;15.60;56.80;;;;;;20720;6840;118343;-77
2023/05/12 06:16:54;;;;;;;13.73;12.73;;;15.50;56.70;;;;;;20481;6840;342244;-77
2023/05/12 06:19:20;;;;;;;12.20;11.30;;;15.50;56.70;;;;;;20716;6840;118030;-77
2023/05/12 06:21:46;;;;;;;14.05;12.90;;;15.70;56.60;;;;;;20508;6840;307525;-77
2023/05/12 06:24:12;;;;;;;14.25;13.20;;;15.70;56.60;;;;;;20502;6840;337118;-77
2023/05/12 06:26:37;;;;;;;14.50;13.50;;;16.00;56.00;;;;;;20518;6840;345808;-77
2023/05/12 06:29:03;;;;;;;12.37;11.17;;;16.20;55.80;;;;;;20715;6840;118028;-77
2023/05/12 06:31:28;;;;;;;11.70;10.80;;;16.10;55.60;;;;;;20722;6840;120927;-76
2023/05/12 06:33:55;;;;;;;12.70;11.77;;;15.90;56.20;;;;;;20732;6840;121981;-77
2023/05/12 06:36:21;;;;;;;12.30;11.23;;;15.70;56.60;;;;;;20733;6840;117496;-76
2023/05/12 06:38:49;;;;;;;13.13;12.13;;;15.40;57.60;;;;;;20697;6840;117982;-74
2023/05/12 06:41:14;;;;;;;14.97;13.50;;;15.40;57.60;;;;;;20498;6840;299488;-73
2023/05/12 06:43:40;;;;;;;13.37;12.27;;;15.80;56.40;;;;;;20714;6840;121970;-74
2023/05/12 06:46:07;;;;;;;12.53;11.47;;;15.80;56.90;;;;;;20714;6840;117575;-75
2023/05/12 06:48:31;;;;;;;15.80;14.60;;;15.80;57.40;;;;;;20498;6840;306639;-75
2023/05/12 06:50:57;;;;;;;12.73;11.80;;;16.00;56.30;;;;;;20703;6840;117842;-76
2023/05/12 06:53:22;;;;;;;15.70;14.50;;;16.10;56.40;;;;;;20516;6840;322053;-78
2023/05/12 06:55:49;;;;;;;14.25;12.95;;;16.20;55.60;;;;;;20728;6840;117532;-76
2023/05/12 06:58:17;;;;;;;13.33;12.23;;;16.20;55.60;;;;;;20729;6840;117761;-77
2023/05/12 07:00:41;;;;;;;13.90;12.70;;;16.00;55.90;;;;;;20708;6840;117503;-76
2023/05/12 07:03:08;;;;;;;16.20;14.90;;;15.80;57.20;;;;;;20510;6840;279064;-76
2023/05/12 07:05:34;;;;;;;13.68;12.48;;;15.90;55.80;;;;;;20741;6840;117966;-82
2023/05/12 07:07:59;;;;;;;14.57;13.37;;;16.00;56.10;;;;;;20765;6840;116823;-79
2023/05/12 07:10:26;;;;;;;13.23;12.23;;;15.80;56.50;;;;;;20764;6840;118009;-85
2023/05/12 07:12:51;;;;;;;16.52;15.15;;;15.80;57.10;;;;;;20532;6840;335659;-79
2023/05/12 07:15:18;;;;;;;13.80;12.77;;;16.10;56.70;;;;;;20753;6840;123349;-82
2023/05/12 07:17:44;;;;;;;16.43;15.23;;;16.30;55.90;;;;;;20530;6840;299486;-79
2023/05/12 07:20:10;;;;;;;15.13;14.13;;;16.30;55.50;;;;;;20525;6839;307118;-77
2023/05/12 07:22:36;;;;;;;13.13;12.13;;;16.70;55.00;;;;;;20732;6839;116364;-78
2023/05/12 07:25:01;;;;;;;13.80;12.53;;;16.80;55.20;;;;;;20708;6840;118947;-75
2023/05/12 07:27:26;;;;;;;14.43;13.43;;;16.70;55.60;;;;;;20522;6840;312525;-75
2023/05/12 07:29:53;;;;;;;13.20;12.10;;;16.90;54.60;;;;;;20728;6840;117430;-78
2023/05/12 07:32:19;;;;;;;14.25;13.30;;;17.00;54.70;;;;;;20528;6840;307114;-77
2023/05/12 07:34:46;;;;;;;13.57;12.48;;;17.20;52.70;;;;;;20717;6840;127372;-79
2023/05/12 07:37:12;;;;;;;13.17;12.07;;;17.20;53.20;;;;;;20516;6840;308019;-78
2023/05/12 07:39:38;;;;;;;9.82;9.23;;;17.40;53.20;;;;;;20538;6840;312152;-77
2023/05/12 07:42:04;;;;;;;10.03;9.43;;;17.70;51.10;;;;;;20519;6855;292141;-78
2023/05/12 07:44:32;;;;;;;9.93;9.43;;;18.00;49.90;;;;;;20558;6840;310427;-77
2023/05/12 07:46:56;;;;;;;8.10;7.60;;;18.30;50.10;;;;;;20736;6840;117061;-78
2023/05/12 07:49:22;;;;;;;6.70;6.30;;;18.20;49.90;;;;;;20751;6840;117244;-78
2023/05/12 07:51:48;;;;;;;6.40;6.10;;;18.10;50.80;;;;;;20729;6840;119409;-80
2023/05/12 07:54:14;;;;;;;7.50;7.00;;;18.00;51.20;;;;;;20518;6840;307576;-77
2023/05/12 07:56:39;;;;;;;8.20;7.70;;;18.10;49.90;;;;;;20516;6840;307655;-77
2023/05/12 07:59:05;;;;;;;7.10;6.70;;;18.50;48.30;;;;;;20710;6840;117685;-77
2023/05/12 08:01:30;;;;;;;5.80;5.50;;;18.60;49.30;;;;;;20723;6840;118422;-77
2023/05/12 08:03:56;;;;;;;6.30;6.00;;;18.50;49.80;;;;;;20524;6840;310439;-81
2023/05/12 08:06:23;;;;;;;5.20;4.90;;;18.70;48.80;;;;;;20735;6840;117238;-81
2023/05/12 08:08:48;;;;;;;6.30;5.90;;;18.70;49.10;;;;;;20512;6840;315497;-82
2023/05/12 08:11:14;;;;;;;5.20;4.82;;;18.90;46.40;;;;;;20531;6840;280075;-80
2023/05/12 08:13:40;;;;;;;4.13;3.93;;;19.20;47.70;;;;;;20743;6840;116674;-87
2023/05/12 08:16:06;;;;;;;5.80;5.50;;;19.20;46.90;;;;;;20530;6840;335949;-80
2023/05/12 08:18:31;;;;;;;4.97;4.68;;;19.20;45.70;;;;;;20749;6840;117582;-77
2023/05/12 08:20:58;;;;;;;5.43;5.12;;;19.30;45.70;;;;;;20515;6840;296534;-74
2023/05/12 08:23:23;;;;;;;5.40;4.97;;;19.30;45.80;;;;;;20742;6840;117217;-76
2023/05/12 08:25:50;;;;;;;4.93;4.53;;;19.00;47.40;;;;;;20738;6840;117226;-82
2023/05/12 08:28:15;;;;;;;4.40;4.05;;;19.00;47.40;;;;;;20535;6840;278030;-78
2023/05/12 08:30:44;;;;;;;5.00;4.70;;;19.10;46.20;;;;;;20534;6840;278427;-78
2023/05/12 08:33:09;;;;;;;5.03;4.83;;;19.40;46.30;;;;;;20515;6838;307513;-72
2023/05/12 08:35:35;;;;;;;5.07;4.75;;;19.60;45.30;;;;;;20515;6840;291650;-77
2023/05/12 08:38:01;;;;;;;5.00;4.80;;;19.60;45.60;;;;;;20706;6840;117064;-76
2023/05/12 08:40:27;;;;;;;5.33;5.03;;;19.60;45.60;;;;;;20732;6840;117116;-72
2023/05/12 08:43:08;;;;;;;4.57;4.27;;;19.30;46.40;;;;;;20709;6840;120833;-76
2023/05/12 08:45:34;;;;;;;4.20;4.00;;;18.90;47.20;;;;;;20647;6855;117458;-74
2023/05/12 08:48:00;;;;;;;4.60;4.30;;;18.70;47.90;;;;;;20528;6840;331756;-74
2023/05/12 08:50:25;;;;;;;4.97;4.70;;;18.80;45.70;;;;;;20528;6840;308429;-74
2023/05/12 08:52:51;;;;;;;4.93;4.53;;;19.10;46.50;;;;;;20717;6840;127249;-74
2023/05/12 08:55:16;;;;;;;5.25;4.95;;;19.00;47.10;;;;;;20519;6840;282555;-74
2023/05/12 08:57:47;;;;;;;4.47;4.27;;;19.10;47.60;;;;;;20727;6840;117394;-74
2023/05/12 09:00:10;;;;;;;4.37;4.18;;;19.30;47.30;;;;;;20508;6840;307536;-72
2023/05/12 09:02:35;;;;;;;4.50;4.20;;;19.20;47.20;;;;;;20726;6840;117575;-74
2023/05/12 09:05:01;;;;;;;3.60;3.40;;;19.40;48.40;;;;;;20710;6840;119749;-74
2023/05/12 09:07:26;;;;;;;3.80;3.60;;;19.30;48.50;;;;;;20739;6840;117604;-73
2023/05/12 09:09:52;;;;;;;3.15;2.95;;;19.30;48.70;;;;;;20524;6840;307896;-72
2023/05/12 09:12:18;;;;;;;2.50;2.40;;;19.50;46.20;;;;;;20511;6840;337520;-74
2023/05/12 09:14:43;;;;;;;2.60;2.50;;;19.90;45.70;;;;;;20508;6840;307109;-74
2023/05/12 09:17:11;;;;;;;2.37;2.20;;;20.30;44.10;;;;;;20734;6840;117375;-74
2023/05/12 09:19:34;;;;;;;2.40;2.30;;;20.20;44.90;;;;;;20724;6840;117448;-74
2023/05/12 09:22:01;;;;;;;2.07;1.97;;;20.10;45.90;;;;;;20521;6840;278418;-74
2023/05/12 09:24:33;;;;;;;1.60;1.60;;;20.20;45.10;;;;;;20525;6840;282891;-72
2023/05/12 09:26:59;;;;;;;1.80;1.70;;;20.60;44.10;;;;;;20476;6840;278149;-75
2023/05/12 09:29:25;;;;;;;1.80;1.70;;;21.30;42.70;;;;;;20519;6840;283006;-74
2023/05/12 09:31:54;;;;;;;1.70;1.70;;;21.30;42.60;;;;;;20721;6840;117863;-75
2023/05/12 09:34:27;;;;;;;1.50;1.40;;;21.10;43.50;;;;;;20725;6840;117425;-75
2023/05/12 09:36:55;;;;;;;1.50;1.50;;;21.10;43.50;;;;;;20721;6840;117748;-75
2023/05/12 09:39:21;;;;;;;2.13;2.03;;;20.90;44.00;;;;;;20739;6840;119884;-74
2023/05/12 09:41:46;;;;;;;1.90;1.80;;;21.00;44.50;;;;;;20746;6840;123513;-75
2023/05/12 09:44:12;;;;;;;1.63;1.53;;;21.00;44.80;;;;;;20538;6838;278431;-73
2023/05/12 09:46:40;;;;;;;1.52;1.52;;;21.30;42.10;;;;;;20519;6840;340217;-74
2023/05/12 09:49:03;;;;;;;13.73;12.73;;;21.70;40.60;;;;;;20474;6840;277638;-75
2023/05/12 09:51:30;;;;;;;1.37;1.37;;;21.80;40.40;;;;;;20689;6855;117869;-75
2023/05/12 09:53:55;;;;;;;1.60;1.50;;;21.90;40.70;;;;;;20519;6840;337292;-75
2023/05/12 09:56:21;;;;;;;1.30;1.30;;;21.80;40.60;;;;;;20727;6840;117361;-75
2023/05/12 09:58:48;;;;;;;1.30;1.30;;;21.70;41.30;;;;;;20513;6840;277677;-76
2023/05/12 10:01:14;;;;;;;1.43;1.43;;;21.60;41.10;;;;;;20737;6840;117251;-73
2023/05/12 10:03:41;;;;;;;1.73;1.73;;;21.60;41.10;;;;;;20735;6840;117312;-75
2023/05/12 10:06:07;;;;;;;1.77;1.77;;;21.50;41.20;;;;;;20526;6840;308057;-76
2023/05/12 10:09:08;;;;;;;1.90;1.80;;;21.50;41.10;;;;;;20716;6840;121121;-76
2023/05/12 10:11:34;;;;;;;1.47;1.47;;;21.40;41.80;;;;;;20728;6840;117250;-77
2023/05/12 10:14:00;;;;;;;1.50;1.50;;;20.80;43.00;;;;;;20730;6840;116078;-76
2023/05/12 10:16:27;;;;;;;2.12;2.03;;;20.80;42.90;;;;;;20515;6840;337043;-77
2023/05/12 10:18:53;;;;;;;2.22;2.12;;;20.80;41.80;;;;;;20505;6840;283553;-77
2023/05/12 10:21:18;;;;;;;2.28;2.17;;;21.10;42.60;;;;;;20517;6840;307569;-75
2023/05/12 10:23:45;;;;;;;2.47;2.30;;;21.40;42.20;;;;;;20522;6840;335451;-77
2023/05/12 10:26:12;;;;;;;2.57;2.33;;;21.70;40.50;;;;;;20728;6840;117058;-75
2023/05/12 10:28:37;;;;;;;2.30;2.20;;;21.60;41.10;;;;;;20512;6840;312233;-76
2023/05/12 10:31:03;;;;;;;2.40;2.30;;;21.50;41.20;;;;;;20494;6840;312353;-75
2023/05/12 10:33:29;;;;;;;1.63;1.60;;;21.60;41.10;;;;;;20732;6840;117503;-74
2023/05/12 10:35:54;;;;;;;2.60;2.50;;;21.20;41.60;;;;;;20530;6840;307176;-74
2023/05/12 10:38:20;;;;;;;2.50;2.40;;;21.10;41.20;;;;;;20533;6840;302174;-77
2023/05/12 10:40:52;;;;;;;2.30;2.20;;;21.00;41.70;;;;;;20483;6840;282604;-80
2023/05/12 10:43:22;;;;;;;2.30;2.20;;;21.00;41.70;;;;;;20523;6840;279185;-82
2023/05/12 10:45:47;;;;;;;2.40;2.20;;;20.90;41.60;;;;;;20690;6855;117984;-79
2023/05/12 10:48:13;;;;;;;2.57;2.30;;;20.50;42.50;;;;;;20666;6840;119088;-78
2023/05/12 10:50:38;;;;;;;2.40;2.30;;;20.10;43.50;;;;;;20524;6840;277989;-79
2023/05/12 10:53:04;;;;;;;2.00;1.90;;;20.10;42.80;;;;;;20671;6840;123487;-77
2023/05/12 10:55:32;;;;;;;2.58;2.45;;;19.90;43.50;;;;;;20528;6839;308233;-77
2023/05/12 10:58:05;;;;;;;2.40;2.30;;;19.90;42.90;;;;;;20508;6840;277648;-80
2023/05/12 11:00:30;;;;;;;2.40;2.30;;;20.00;43.30;;;;;;20508;6840;336607;-77
2023/05/12 11:02:56;;;;;;;1.92;1.90;;;20.10;43.20;;;;;;20714;6840;120135;-76
2023/05/12 11:05:22;;;;;;;2.27;2.17;;;20.00;43.30;;;;;;20511;6840;279005;-76
2023/05/12 11:07:48;;;;;;;1.93;1.83;;;19.90;43.20;;;;;;20472;6840;308064;-73
2023/05/12 11:10:14;;;;;;;2.53;2.17;;;19.90;43.50;;;;;;20730;6840;117681;-75
2023/05/12 11:12:40;;;;;;;2.07;1.97;;;19.90;43.40;;;;;;20714;6840;117779;-73
2023/05/12 11:15:06;;;;;;;1.97;1.87;;;19.40;45.00;;;;;;20710;6840;117637;-72
2023/05/12 11:17:32;;;;;;;1.97;1.87;;;19.40;45.00;;;;;;20716;6840;117576;-74
2023/05/12 11:19:59;;;;;;;1.67;1.43;;;19.30;45.70;;;;;;20729;6840;117530;-72
2023/05/12 11:22:23;;;;;;;1.50;1.40;;;19.20;45.60;;;;;;20523;6840;307549;-72
2023/05/12 11:24:49;;;;;;;1.30;1.30;;;19.50;44.70;;;;;;20723;6840;117217;-71
2023/05/12 11:27:14;;;;;;;1.50;1.50;;;19.80;45.20;;;;;;20736;6840;117467;-73
2023/05/12 11:29:40;;;;;;;1.80;1.70;;;19.80;45.30;;;;;;20530;6840;301263;-73
2023/05/12 11:32:05;;;;;;;1.40;1.40;;;20.10;44.90;;;;;;20732;6840;122952;-73
2023/05/12 11:34:32;;;;;;;1.60;1.60;;;20.40;45.20;;;;;;20725;6840;117984;-74
2023/05/12 11:36:57;;;;;;;1.87;1.77;;;20.40;45.20;;;;;;20499;6840;307711;-74
2023/05/12 11:39:26;;;;;;;2.20;2.10;;;20.70;44.10;;;;;;20522;6840;282168;-73
2023/05/12 11:41:52;;;;;;;2.00;1.90;;;21.00;41.90;;;;;;20497;6840;320137;-73
2023/05/12 11:44:22;;;;;;;2.10;2.00;;;21.10;42.00;;;;;;20727;6840;117648;-72
2023/05/12 11:47:01;;;;;;;2.30;2.20;;;20.80;42.90;;;;;;20494;6840;278854;-73
2023/05/12 11:49:26;;;;;;;2.43;2.23;;;20.60;43.50;;;;;;20514;6840;307984;-74
2023/05/12 11:51:55;;;;;;;2.75;2.55;;;20.50;45.40;;;;;;20522;6840;316161;-74
2023/05/12 11:54:21;;;;;;;2.80;2.43;;;20.30;45.40;;;;;;20724;6840;117450;-75
2023/05/12 11:56:50;;;;;;;1.95;1.80;;;19.70;45.90;;;;;;20483;6840;285501;-74
2023/05/12 11:59:30;;;;;;;1.70;1.60;;;19.10;48.90;;;;;;20508;6840;311944;-74
2023/05/12 12:01:56;;;;;;;2.30;1.50;;;18.50;49.50;;;;;;20729;6840;117200;-73
2023/05/12 12:04:32;;;;;;;1.50;1.40;;;18.50;49.50;;;;;;20514;6840;312419;-75
2023/05/12 12:06:57;;;;;;;1.57;1.50;;;18.40;51.30;;;;;;20685;6839;117611;-77
2023/05/12 12:09:36;;;;;;;1.27;1.10;;;18.10;51.20;;;;;;20716;6840;118458;-74
2023/05/12 12:12:03;;;;;;;1.00;1.00;;;17.80;51.80;;;;;;20487;6840;307028;-74
2023/05/12 12:14:32;;;;;;;1.27;1.27;;;17.90;53.60;;;;;;20516;6840;311478;-74
2023/05/12 12:16:57;;;;;;;1.33;1.20;;;18.30;54.40;;;;;;20719;6840;120861;-74
2023/05/12 12:19:24;;;;;;;1.65;1.50;;;18.40;54.20;;;;;;20521;6840;308573;-73
2023/05/12 12:21:49;;;;;;;1.07;1.07;;;18.70;53.90;;;;;;20732;6840;118001;-74
2023/05/12 12:24:15;;;;;;;1.20;1.20;;;18.70;54.00;;;;;;20522;6840;278453;-74
2023/05/12 12:26:41;;;;;;;0.95;0.95;;;19.30;53.00;;;;;;20515;6840;337517;-73
2023/05/12 12:29:10;;;;;;;1.20;1.10;;;19.60;52.60;;;;;;20363;6840;318656;-72